Time;durP1;ratioP1;P1;durP2;ratioP2;P2;SDS_P1;SDS_P2;PMS_P1;PMS_P2;Temp;Humidity;BMP_temperature;BMP_pressure;BME280_temperature;BME280_humidity;BME280_pressure;Samples;Min_cycle;Max_cycle;Signal;HPM_P1;HPM_P2
2022/06/17 00:01:42;;;;;;;4.05;3.65;;;;;;;;;;6096198;23;20024;-81
2022/06/17 00:04:08;;;;;;;6.13;4.55;;;;;;;;;;6070590;23;20085;-82
2022/06/17 00:06:39;;;;;;;5.03;4.05;;;;;;;;;;6096285;23;20007;-82
2022/06/17 00:09:07;;;;;;;6.50;4.28;;;;;;;;;;6096095;23;20030;-82
2022/06/17 00:11:34;;;;;;;4.40;3.72;;;;;;;;;;6070554;23;20455;-83
2022/06/17 00:14:00;;;;;;;6.40;4.65;;;;;;;;;;6095802;23;19998;-81
2022/06/17 00:16:27;;;;;;;5.22;4.60;;;;;;;;;;6095955;23;20014;-82
2022/06/17 00:18:53;;;;;;;5.03;4.53;;;;;;;;;;6095997;23;20018;-81
2022/06/17 00:21:25;;;;;;;6.88;4.40;;;;;;;;;;6096121;23;20006;-82
2022/06/17 00:23:51;;;;;;;5.63;4.20;;;;;;;;;;6070339;23;20030;-83
2022/06/17 00:26:18;;;;;;;5.07;4.57;;;;;;;;;;6097252;23;20049;-82
2022/06/17 00:28:44;;;;;;;7.20;4.85;;;;;;;;;;6097939;23;20003;-81
2022/06/17 00:31:10;;;;;;;5.60;4.75;;;;;;;;;;6098173;23;20069;-82
2022/06/17 00:33:36;;;;;;;5.90;5.15;;;;;;;;;;6098393;23;20014;-82
2022/06/17 00:36:04;;;;;;;6.32;5.50;;;;;;;;;;6097762;23;20371;-82
2022/06/17 00:38:31;;;;;;;7.75;7.03;;;;;;;;;;6098068;23;20026;-81
2022/06/17 00:40:59;;;;;;;7.25;6.65;;;;;;;;;;6097874;23;19999;-82
2022/06/17 00:43:28;;;;;;;7.95;7.20;;;;;;;;;;6097926;23;20090;-82
2022/06/17 00:46:12;;;;;;;;;;;;;;;;;;;;;
2022/06/17 00:48:48;;;;;;;10.30;9.30;;;;;;;;;;6097817;23;20094;-81
2022/06/17 00:51:21;;;;;;;8.73;7.82;;;;;;;;;;6098020;23;20079;-83
2022/06/17 00:53:50;;;;;;;7.88;7.07;;;;;;;;;;6097978;23;20434;-82
2022/06/17 00:56:21;;;;;;;6.65;6.05;;;;;;;;;;6097708;23;20097;-82
2022/06/17 00:59:00;;;;;;;7.25;5.47;;;;;;;;;;6097791;23;20087;-82
2022/06/17 01:01:27;;;;;;;6.90;6.25;;;;;;;;;;6097683;23;20331;-81
2022/06/17 01:03:54;;;;;;;6.82;6.22;;;;;;;;;;6097829;23;20042;-82
2022/06/17 01:06:25;;;;;;;6.95;5.90;;;;;;;;;;6097433;23;20428;-83
2022/06/17 01:11:40;;;;;;;7.40;6.63;;;;;;;;;;6097742;23;20146;-83
2022/06/17 01:14:07;;;;;;;5.95;5.22;;;;;;;;;;6071897;23;20009;-82
2022/06/17 01:16:35;;;;;;;6.97;5.30;;;;;;;;;;6097476;23;20093;-82
2022/06/17 01:19:03;;;;;;;6.32;5.63;;;;;;;;;;6097558;23;20036;-82
2022/06/17 01:21:49;;;;;;;7.63;6.43;;;;;;;;;;6097701;23;20010;-82
2022/06/17 01:24:15;;;;;;;6.32;5.72;;;;;;;;;;6097666;23;20391;-82
2022/06/17 01:26:41;;;;;;;6.40;5.70;;;;;;;;;;6097292;23;20006;-82
2022/06/17 01:29:13;;;;;;;6.47;5.88;;;;;;;;;;6097696;23;20078;-82
2022/06/17 01:31:40;;;;;;;8.68;6.45;;;;;;;;;;6097220;23;20010;-83
2022/06/17 01:34:07;;;;;;;6.60;5.95;;;;;;;;;;6072298;23;20010;-81
2022/06/17 01:36:33;;;;;;;7.55;5.82;;;;;;;;;;6071607;23;20022;-82
2022/06/17 01:39:00;;;;;;;8.05;5.68;;;;;;;;;;6097220;23;20007;-82
2022/06/17 01:41:28;;;;;;;6.32;5.72;;;;;;;;;;6097282;23;20002;-83
2022/06/17 01:43:56;;;;;;;6.72;6.10;;;;;;;;;;6097425;23;20044;-82
2022/06/17 01:46:34;;;;;;;6.93;6.20;;;;;;;;;;6097236;23;20032;-82
2022/06/17 01:49:02;;;;;;;6.97;6.15;;;;;;;;;;6097318;23;20011;-82
2022/06/17 01:51:32;;;;;;;7.65;6.40;;;;;;;;;;6097168;23;20017;-82
2022/06/17 01:53:59;;;;;;;10.07;6.03;;;;;;;;;;6097200;23;20010;-82
2022/06/17 01:56:28;;;;;;;7.43;6.70;;;;;;;;;;6097060;23;19998;-82
2022/06/17 01:59:17;;;;;;;8.63;7.18;;;;;;;;;;6097223;23;20010;-82
2022/06/17 02:01:45;;;;;;;7.22;6.35;;;;;;;;;;6078899;23;20006;-83
2022/06/17 02:04:18;;;;;;;8.18;7.38;;;;;;;;;;6097022;23;20006;-82
2022/06/17 02:06:47;;;;;;;7.82;6.70;;;;;;;;;;6097014;23;20077;-82
2022/06/17 02:09:14;;;;;;;8.38;7.45;;;;;;;;;;6097050;23;20069;-80
2022/06/17 02:11:40;;;;;;;8.40;7.70;;;;;;;;;;6097140;23;20014;-82
2022/06/17 02:14:08;;;;;;;9.02;8.13;;;;;;;;;;6096786;23;20423;-82
2022/06/17 02:16:57;;;;;;;8.43;7.25;;;;;;;;;;6097054;23;20038;-82
2022/06/17 02:22:50;;;;;;;9.93;7.82;;;;;;;;;;6008506;23;20551;-80
2022/06/17 02:26:00;;;;;;;7.95;7.15;;;;;;;;;;6008571;23;20156;-82
2022/06/17 02:28:39;;;;;;;9.32;7.47;;;;;;;;;;6041322;23;20009;-81
2022/06/17 02:31:22;;;;;;;8.27;7.47;;;;;;;;;;6096566;23;20018;-81
2022/06/17 02:36:49;;;;;;;8.10;7.30;;;;;;;;;;6081118;23;20006;-82
2022/06/17 02:39:26;;;;;;;;;;;;;;;;;;;;;
2022/06/17 02:42:02;;;;;;;7.80;7.00;;;;;;;;;;6096736;23;20077;-82
2022/06/17 02:44:34;;;;;;;8.73;7.93;;;;;;;;;;6096867;23;20020;-81
2022/06/17 02:47:20;;;;;;;10.00;8.20;;;;;;;;;;6096411;23;20002;-81
2022/06/17 02:50:14;;;;;;;9.23;8.15;;;;;;;;;;6095895;23;19998;-82
2022/06/17 02:52:56;;;;;;;10.20;8.45;;;;;;;;;;6096758;23;20002;-82
2022/06/17 02:55:31;;;;;;;8.73;7.72;;;;;;;;;;6096393;23;20003;-82
2022/06/17 02:58:02;;;;;;;9.65;8.48;;;;;;;;;;6096662;23;20088;-82
2022/06/17 03:00:28;;;;;;;9.77;8.63;;;;;;;;;;6096630;23;20003;-82
2022/06/17 03:02:56;;;;;;;10.07;8.88;;;;;;;;;;6096599;23;20033;-81
2022/06/17 03:05:36;;;;;;;;;;;;;;;;;;;;;
2022/06/17 03:08:13;;;;;;;19.55;15.27;;;;;;;;;;6096185;23;20510;-83
2022/06/17 03:10:51;;;;;;;;;;;;;;;;;;;;;
2022/06/17 03:13:23;;;;;;;14.45;10.50;;;;;;;;;;6096555;23;20077;-81
2022/06/17 03:15:49;;;;;;;10.32;9.25;;;;;;;;;;6096147;23;20058;-82
2022/06/17 03:18:16;;;;;;;11.23;10.05;;;;;;;;;;6096478;23;20342;-82
2022/06/17 03:24:12;;;;;;;10.60;9.43;;;;;;;;;;6081038;23;20002;-82
2022/06/17 03:27:04;;;;;;;11.50;8.10;;;;;;;;;;6096238;23;19999;-82
2022/06/17 03:29:32;;;;;;;10.30;9.30;;;;;;;;;;5951707;23;20009;-82
2022/06/17 03:32:03;;;;;;;20.88;18.08;;;;;;;;;;5938745;23;20444;-82
2022/06/17 03:34:48;;;;;;;19.33;15.45;;;;;;;;;;6096166;23;20012;-82
2022/06/17 03:37:24;;;;;;;12.30;10.98;;;;;;;;;;6096035;23;20073;-82
2022/06/17 03:40:19;;;;;;;13.48;10.43;;;;;;;;;;6096135;23;20009;-80
2022/06/17 03:42:55;;;;;;;14.48;10.45;;;;;;;;;;6065907;23;20010;-79
2022/06/17 03:45:43;;;;;;;10.82;9.82;;;;;;;;;;6096042;23;20005;-81
2022/06/17 03:48:09;;;;;;;11.63;10.40;;;;;;;;;;6095932;23;20010;-80
2022/06/17 03:50:36;;;;;;;10.93;9.93;;;;;;;;;;6096350;23;20064;-81
2022/06/17 03:53:21;;;;;;;11.75;10.50;;;;;;;;;;6096642;23;20006;-79
2022/06/17 03:55:47;;;;;;;;;;;;;;;;;;6096500;23;20043;-79
2022/06/17 03:58:16;;;;;;;12.68;9.23;;;;;;;;;;6095878;23;19905;-79
2022/06/17 04:00:44;;;;;;;11.65;9.25;;;;;;;;;;6070350;23;20081;-80
2022/06/17 04:03:16;;;;;;;9.68;8.85;;;;;;;;;;6095941;23;20091;-79
2022/06/17 04:05:43;;;;;;;12.63;11.38;;;;;;;;;;6096140;23;20029;-81
2022/06/17 04:08:12;;;;;;;12.75;10.43;;;;;;;;;;6095840;23;20010;-81
2022/06/17 04:10:39;;;;;;;12.57;10.57;;;;;;;;;;6095996;23;20006;-82
2022/06/17 04:13:06;;;;;;;12.45;9.93;;;;;;;;;;6095673;23;20006;-80
2022/06/17 04:15:36;;;;;;;10.43;9.25;;;;;;;;;;6095901;23;20026;-79
2022/06/17 04:18:03;;;;;;;10.52;9.63;;;;;;;;;;6095772;23;20046;-79
2022/06/17 04:20:41;;;;;;;10.43;9.32;;;;;;;;;;6096199;23;20439;-80
2022/06/17 04:23:10;;;;;;;10.30;9.32;;;;;;;;;;6096023;23;20010;-79
2022/06/17 04:25:39;;;;;;;10.35;9.35;;;;;;;;;;6095776;23;20025;-79
2022/06/17 04:28:07;;;;;;;11.20;9.55;;;;;;;;;;6096227;23;20017;-79
2022/06/17 04:30:35;;;;;;;10.27;9.18;;;;;;;;;;6095804;23;20006;-79
2022/06/17 04:33:05;;;;;;;16.85;15.07;;;;;;;;;;6095893;23;19998;-80
2022/06/17 04:35:31;;;;;;;13.00;11.68;;;;;;;;;;6095738;23;20064;-79
2022/06/17 04:37:57;;;;;;;10.70;9.60;;;;;;;;;;6070737;23;20014;-80
2022/06/17 04:40:26;;;;;;;11.15;9.75;;;;;;;;;;6096116;23;20003;-80
2022/06/17 04:42:53;;;;;;;11.10;9.77;;;;;;;;;;6095799;23;20010;-81
2022/06/17 04:45:22;;;;;;;10.57;9.38;;;;;;;;;;6095964;23;20010;-81
2022/06/17 04:47:48;;;;;;;9.73;8.85;;;;;;;;;;6095569;23;20014;-81
2022/06/17 04:50:16;;;;;;;9.68;8.80;;;;;;;;;;6095950;23;20018;-81
2022/06/17 04:52:43;;;;;;;9.27;7.85;;;;;;;;;;6095340;23;20082;-79
2022/06/17 04:55:18;;;;;;;23.15;17.83;;;;;;;;;;6095974;23;20006;-81
2022/06/17 04:57:44;;;;;;;14.07;8.63;;;;;;;;;;6095858;23;20003;-81
2022/06/17 05:00:24;;;;;;;10.98;8.32;;;;;;;;;;6095077;23;20054;-81
2022/06/17 05:02:50;;;;;;;11.15;8.77;;;;;;;;;;6095945;23;20455;-79
2022/06/17 05:05:21;;;;;;;10.52;9.43;;;;;;;;;;6095540;23;20501;-78
2022/06/17 05:07:48;;;;;;;9.15;7.88;;;;;;;;;;6096040;23;20014;-80
2022/06/17 05:10:33;;;;;;;9.05;8.15;;;;;;;;;;6095535;23;20009;-79
2022/06/17 05:13:07;;;;;;;10.27;7.30;;;;;;;;;;6096230;23;20011;-78
2022/06/17 05:15:33;;;;;;;8.00;7.28;;;;;;;;;;6097346;23;20445;-79
2022/06/17 05:18:00;;;;;;;9.98;7.60;;;;;;;;;;6096913;23;20078;-78
2022/06/17 05:20:26;;;;;;;8.88;8.05;;;;;;;;;;6097488;23;20005;-80
2022/06/17 05:23:00;;;;;;;12.30;8.95;;;;;;;;;;6095605;23;20018;-80
2022/06/17 05:25:26;;;;;;;;;;;;;;;;;;6070493;23;20013;-79
2022/06/17 05:27:53;;;;;;;8.45;6.95;;;;;;;;;;6096609;23;19901;-79
2022/06/17 05:30:19;;;;;;;8.82;6.75;;;;;;;;;;6096469;23;20074;-80
2022/06/17 05:32:50;;;;;;;9.23;7.72;;;;;;;;;;6095737;23;20006;-80
2022/06/17 05:35:16;;;;;;;5.28;4.78;;;;;;;;;;6095932;23;20066;-86
2022/06/17 05:37:43;;;;;;;11.30;5.78;;;;;;;;;;6094571;23;19999;-81
2022/06/17 05:40:09;;;;;;;13.38;7.00;;;;;;;;;;6096974;23;20007;-82
2022/06/17 05:42:36;;;;;;;8.70;5.65;;;;;;;;;;6096864;23;20482;-84
2022/06/17 05:45:02;;;;;;;14.45;7.40;;;;;;;;;;6093093;23;20010;-83
2022/06/17 05:47:28;;;;;;;16.77;9.43;;;;;;;;;;6095323;23;20007;-82
2022/06/17 05:49:54;;;;;;;16.02;8.80;;;;;;;;;;6095303;23;20447;-82
2022/06/17 05:52:21;;;;;;;11.20;7.93;;;;;;;;;;6095029;23;20015;-82
2022/06/17 05:54:47;;;;;;;11.90;8.45;;;;;;;;;;6095461;23;20028;-80
2022/06/17 05:57:16;;;;;;;18.48;13.10;;;;;;;;;;6095588;23;20034;-81
2022/06/17 05:59:42;;;;;;;13.55;10.18;;;;;;;;;;6095512;23;20002;-81
2022/06/17 06:02:11;;;;;;;13.75;9.00;;;;;;;;;;6095018;23;20077;-82
2022/06/17 06:04:37;;;;;;;8.55;7.50;;;;;;;;;;6095437;23;20085;-82
2022/06/17 06:07:03;;;;;;;9.82;8.50;;;;;;;;;;6094990;23;20081;-82
2022/06/17 06:09:29;;;;;;;8.60;7.00;;;;;;;;;;6070317;23;19999;-83
2022/06/17 06:11:55;;;;;;;12.15;9.77;;;;;;;;;;6094293;23;20005;-84
2022/06/17 06:14:21;;;;;;;14.73;13.23;;;;;;;;;;6094873;23;20446;-85
2022/06/17 06:16:47;;;;;;;11.50;10.48;;;;;;;;;;6095465;23;20403;-83
2022/06/17 06:19:14;;;;;;;14.40;12.10;;;;;;;;;;6095502;23;20040;-86
2022/06/17 06:21:40;;;;;;;57.65;25.25;;;;;;;;;;6095850;23;20007;-83
2022/06/17 06:24:06;;;;;;;85.82;38.13;;;;;;;;;;6095110;23;20447;-84
2022/06/17 06:26:32;;;;;;;79.15;33.10;;;;;;;;;;6094471;23;20097;-82
2022/06/17 06:28:59;;;;;;;71.38;29.60;;;;;;;;;;6069956;23;20382;-85
2022/06/17 06:31:44;;;;;;;46.45;21.33;;;;;;;;;;6095283;23;20022;-83
2022/06/17 06:34:10;;;;;;;19.90;11.32;;;;;;;;;;6094242;23;20018;-82
2022/06/17 06:36:36;;;;;;;18.95;10.73;;;;;;;;;;6094136;23;20013;-84
2022/06/17 06:39:03;;;;;;;14.35;8.45;;;;;;;;;;6094698;23;20002;-83
2022/06/17 06:41:29;;;;;;;15.57;9.75;;;;;;;;;;6069725;23;20002;-83
2022/06/17 06:43:55;;;;;;;14.18;9.40;;;;;;;;;;6094964;23;20089;-84
2022/06/17 06:46:24;;;;;;;54.00;24.02;;;;;;;;;;6094722;23;20013;-86
2022/06/17 06:48:54;;;;;;;63.15;27.00;;;;;;;;;;6094701;23;20387;-87
2022/06/17 06:51:25;;;;;;;43.72;19.13;;;;;;;;;;6068320;23;20049;-84
2022/06/17 06:53:51;;;;;;;57.92;25.73;;;;;;;;;;6094300;23;20007;-83
2022/06/17 06:56:18;;;;;;;37.25;18.92;;;;;;;;;;6094934;23;20073;-83
2022/06/17 06:58:44;;;;;;;16.60;9.25;;;;;;;;;;6095007;23;20379;-82
2022/06/17 07:01:10;;;;;;;42.20;20.42;;;;;;;;;;6095024;23;20002;-82
2022/06/17 07:03:36;;;;;;;21.95;13.70;;;;;;;;;;6093392;23;20081;-84
2022/06/17 07:06:04;;;;;;;10.20;7.30;;;;;;;;;;6095050;23;20009;-84
2022/06/17 07:08:32;;;;;;;15.60;10.55;;;;;;;;;;6094346;23;20085;-83
2022/06/17 07:14:02;;;;;;;190.10;73.68;;;;;;;;;;6093655;23;20421;-82
2022/06/17 07:16:28;;;;;;;157.70;67.88;;;;;;;;;;6092896;23;20033;-84
2022/06/17 07:18:54;;;;;;;145.70;57.03;;;;;;;;;;6094049;23;20002;-86
2022/06/17 07:21:33;;;;;;;178.23;74.13;;;;;;;;;;6094156;23;20010;-88
2022/06/17 07:23:59;;;;;;;75.95;35.08;;;;;;;;;;6094428;23;20442;-81
2022/06/17 07:26:26;;;;;;;76.03;34.42;;;;;;;;;;6093716;23;20009;-85
2022/06/17 07:28:55;;;;;;;19.13;10.48;;;;;;;;;;6095222;23;20009;-85
2022/06/17 07:31:28;;;;;;;41.17;20.77;;;;;;;;;;6094833;23;20050;-85
2022/06/17 07:33:56;;;;;;;23.85;14.82;;;;;;;;;;6068003;23;20014;-84
2022/06/17 07:41:56;;;;;;;46.40;21.10;;;;;;;;;;6093796;23;20021;-83
2022/06/17 07:44:24;;;;;;;150.90;61.78;;;;;;;;;;6094626;23;20033;-82
2022/06/17 07:46:50;;;;;;;47.45;19.83;;;;;;;;;;6094005;23;20301;-84
2022/06/17 07:49:26;;;;;;;89.13;34.00;;;;;;;;;;6094138;23;20470;-85
2022/06/17 07:51:54;;;;;;;130.80;49.90;;;;;;;;;;6068334;23;20012;-84
2022/06/17 07:54:39;;;;;;;59.63;27.35;;;;;;;;;;6068563;23;20011;-86
2022/06/17 07:57:20;;;;;;;108.85;56.38;;;;;;;;;;6068507;23;20382;-87
2022/06/17 07:59:49;;;;;;;34.03;25.48;;;;;;;;;;6069615;23;20010;-82
2022/06/17 08:02:15;;;;;;;126.95;56.35;;;;;;;;;;6094811;23;20013;-83
2022/06/17 08:04:41;;;;;;;142.48;61.28;;;;;;;;;;6094259;23;20017;-72
2022/06/17 08:07:08;;;;;;;135.43;57.00;;;;;;;;;;6094743;23;20431;-83
2022/06/17 08:09:34;;;;;;;90.35;39.80;;;;;;;;;;6094151;23;20010;-86
2022/06/17 08:12:21;;;;;;;30.95;16.70;;;;;;;;;;6068798;23;20032;-87
2022/06/17 08:14:49;;;;;;;71.78;30.20;;;;;;;;;;6094086;23;20042;-84
2022/06/17 08:17:16;;;;;;;39.42;17.83;;;;;;;;;;6094458;23;20014;-86
2022/06/17 08:19:46;;;;;;;29.77;15.10;;;;;;;;;;6068850;23;20355;-85
2022/06/17 08:22:12;;;;;;;22.65;12.35;;;;;;;;;;6094230;23;20009;-82
2022/06/17 08:24:38;;;;;;;9.43;6.93;;;;;;;;;;6094311;23;20014;-82
2022/06/17 08:27:05;;;;;;;11.35;10.13;;;;;;;;;;6094264;23;20036;-83
2022/06/17 08:29:31;;;;;;;23.25;20.73;;;;;;;;;;6068390;23;20018;-78
2022/06/17 08:32:45;;;;;;;12.38;9.95;;;;;;;;;;6094022;23;20009;-81
2022/06/17 08:34:46;;;;;;;7.93;7.13;;;;;;;;;;6092841;23;20014;-83
2022/06/17 08:37:14;;;;;;;7.65;6.90;;;;;;;;;;6094327;23;20007;-83
2022/06/17 08:39:40;;;;;;;7.63;6.63;;;;;;;;;;6093670;23;20006;-83
2022/06/17 08:42:10;;;;;;;7.28;6.50;;;;;;;;;;6093542;23;20033;-84
2022/06/17 08:44:42;;;;;;;7.28;6.30;;;;;;;;;;6093707;23;20041;-83
2022/06/17 08:47:27;;;;;;;15.73;7.18;;;;;;;;;;6094102;23;20469;-85
2022/06/17 08:49:53;;;;;;;9.00;6.85;;;;;;;;;;6095717;23;20006;-84
2022/06/17 08:52:38;;;;;;;7.07;6.38;;;;;;;;;;6095988;23;20445;-83
2022/06/17 08:55:24;;;;;;;8.73;6.72;;;;;;;;;;6070445;23;20509;-81
2022/06/17 08:58:09;;;;;;;7.88;7.07;;;;;;;;;;6070440;23;20477;-81
2022/06/17 09:00:53;;;;;;;7.88;5.72;;;;;;;;;;6096137;23;20026;-85
2022/06/17 09:03:38;;;;;;;6.53;5.90;;;;;;;;;;6070514;23;20020;-83
2022/06/17 09:06:23;;;;;;;7.30;6.65;;;;;;;;;;6096309;23;20454;-84
2022/06/17 09:09:16;;;;;;;14.40;11.38;;;;;;;;;;6095720;23;20017;-86
2022/06/17 09:11:51;;;;;;;6.75;6.15;;;;;;;;;;6095950;23;20002;-84
2022/06/17 09:14:30;;;;;;;;;;;;;;;;;;;;;
2022/06/17 09:17:18;;;;;;;12.40;11.13;;;;;;;;;;6095747;23;20105;-86
2022/06/17 09:19:47;;;;;;;7.97;7.25;;;;;;;;;;6095836;23;20017;-85
2022/06/17 09:22:20;;;;;;;7.50;6.55;;;;;;;;;;6070482;23;20093;-84
2022/06/17 09:24:46;;;;;;;8.23;5.75;;;;;;;;;;6095707;23;20002;-87
2022/06/17 09:27:31;;;;;;;6.78;6.18;;;;;;;;;;6095876;23;20050;-85
2022/06/17 09:29:57;;;;;;;7.63;6.80;;;;;;;;;;6070164;23;20390;-84
2022/06/17 09:32:29;;;;;;;6.10;5.53;;;;;;;;;;6070337;23;20010;-84
2022/06/17 09:35:16;;;;;;;8.52;6.72;;;;;;;;;;6095942;23;20454;-83
2022/06/17 09:38:01;;;;;;;6.88;5.28;;;;;;;;;;6069793;23;20002;-81
2022/06/17 09:40:30;;;;;;;9.90;6.18;;;;;;;;;;6095989;23;20025;-82
2022/06/17 09:42:56;;;;;;;14.40;8.85;;;;;;;;;;6095583;23;20010;-83
2022/06/17 09:45:29;;;;;;;39.85;18.40;;;;;;;;;;6095771;23;20073;-84
2022/06/17 09:48:04;;;;;;;23.20;12.10;;;;;;;;;;6070525;23;20018;-83
2022/06/17 09:50:33;;;;;;;36.05;17.58;;;;;;;;;;6070308;23;20346;-84
2022/06/17 09:53:02;;;;;;;48.15;21.27;;;;;;;;;;6069879;23;20065;-80
2022/06/17 09:55:35;;;;;;;37.17;17.27;;;;;;;;;;6095590;23;20030;-81
2022/06/17 09:58:06;;;;;;;5.35;4.80;;;;;;;;;;6095030;23;20085;-83
2022/06/17 10:00:51;;;;;;;7.43;5.40;;;;;;;;;;6095225;23;20002;-79
2022/06/17 10:03:25;;;;;;;7.40;5.85;;;;;;;;;;6095335;23;20002;-81
2022/06/17 10:05:52;;;;;;;5.53;4.65;;;;;;;;;;6095474;23;20017;-80
2022/06/17 10:08:27;;;;;;;5.90;4.60;;;;;;;;;;6094642;23;20003;-85
2022/06/17 10:11:23;;;;;;;7.00;5.10;;;;;;;;;;6069151;23;20801;-81
2022/06/17 10:14:07;;;;;;;5.75;4.60;;;;;;;;;;6064521;23;20015;-82
2022/06/17 10:19:50;;;;;;;5.70;4.53;;;;;;;;;;6095389;23;20022;-80
2022/06/17 10:22:20;;;;;;;70.88;29.38;;;;;;;;;;6095020;23;20002;-83
2022/06/17 10:24:56;;;;;;;47.38;22.23;;;;;;;;;;6069785;23;20061;-79
2022/06/17 10:27:28;;;;;;;52.50;22.55;;;;;;;;;;6095656;23;20376;-82
2022/06/17 10:30:03;;;;;;;27.83;12.38;;;;;;;;;;6069877;23;20021;-85
2022/06/17 10:32:30;;;;;;;27.67;12.82;;;;;;;;;;6068401;23;20045;-80
2022/06/17 10:35:02;;;;;;;34.95;15.38;;;;;;;;;;6093711;23;19998;-83
2022/06/17 10:37:29;;;;;;;9.32;6.07;;;;;;;;;;6068829;23;20423;-86
2022/06/17 10:39:56;;;;;;;43.83;18.67;;;;;;;;;;6094701;23;20004;-84
2022/06/17 10:42:24;;;;;;;51.67;23.65;;;;;;;;;;6068575;23;20007;-81
2022/06/17 10:44:52;;;;;;;32.90;15.68;;;;;;;;;;6094766;23;20014;-83
2022/06/17 10:47:37;;;;;;;27.65;19.45;;;;;;;;;;6069016;23;19999;-82
2022/06/17 10:50:06;;;;;;;16.88;9.85;;;;;;;;;;6068889;23;20006;-84
2022/06/17 10:52:35;;;;;;;8.70;5.45;;;;;;;;;;6094415;23;20006;-83
2022/06/17 10:55:03;;;;;;;16.40;8.88;;;;;;;;;;6094169;23;20006;-88
2022/06/17 10:57:43;;;;;;;6.93;4.93;;;;;;;;;;6069568;23;20003;-86
2022/06/17 11:00:28;;;;;;;26.25;11.23;;;;;;;;;;6068868;23;20349;-84
2022/06/17 11:02:54;;;;;;;26.20;12.43;;;;;;;;;;6068160;23;20097;-83
2022/06/17 11:05:36;;;;;;;60.65;23.52;;;;;;;;;;6094527;23;20351;-86
2022/06/17 11:08:02;;;;;;;14.77;7.13;;;;;;;;;;6094432;23;20338;-83
2022/06/17 11:10:30;;;;;;;33.20;12.50;;;;;;;;;;6093875;23;20017;-86
2022/06/17 11:12:59;;;;;;;36.50;14.02;;;;;;;;;;6069279;23;20013;-82
2022/06/17 11:15:26;;;;;;;11.82;6.03;;;;;;;;;;6094382;23;20094;-84
2022/06/17 11:17:53;;;;;;;9.55;5.45;;;;;;;;;;6094080;23;20027;-84
2022/06/17 11:20:24;;;;;;;11.18;5.55;;;;;;;;;;6094641;23;20009;-86
2022/06/17 11:22:56;;;;;;;9.95;6.28;;;;;;;;;;6094693;23;20093;-84
2022/06/17 11:25:31;;;;;;;37.53;18.58;;;;;;;;;;6093839;23;20002;-81
2022/06/17 11:27:57;;;;;;;16.13;10.55;;;;;;;;;;6094002;23;20003;-85
2022/06/17 11:30:42;;;;;;;27.52;12.85;;;;;;;;;;6068949;23;20082;-83
2022/06/17 11:33:20;;;;;;;24.60;11.98;;;;;;;;;;6094431;23;20013;-84
2022/06/17 11:35:46;;;;;;;17.92;10.50;;;;;;;;;;6094450;23;20002;-86
2022/06/17 11:38:14;;;;;;;7.85;5.07;;;;;;;;;;6094495;23;20009;-83
2022/06/17 11:41:02;;;;;;;12.43;6.57;;;;;;;;;;6070077;23;20011;-81
2022/06/17 11:43:38;;;;;;;19.67;9.90;;;;;;;;;;6095536;23;20010;-88
2022/06/17 11:46:24;;;;;;;6.00;3.95;;;;;;;;;;6094966;23;20105;-85
2022/06/17 11:48:53;;;;;;;17.83;8.00;;;;;;;;;;6094208;23;20501;-85
2022/06/17 11:51:25;;;;;;;7.00;4.47;;;;;;;;;;6094842;23;20101;-83
2022/06/17 11:53:55;;;;;;;3.92;3.20;;;;;;;;;;6068819;23;20375;-86
2022/06/17 11:56:40;;;;;;;4.75;3.75;;;;;;;;;;6069700;23;20473;-83
2022/06/17 11:59:16;;;;;;;7.05;4.53;;;;;;;;;;6094538;23;20026;-88
2022/06/17 12:01:47;;;;;;;4.00;3.55;;;;;;;;;;6095651;23;20098;-83
2022/06/17 12:04:32;;;;;;;6.75;3.30;;;;;;;;;;6093674;23;20074;-80
2022/06/17 12:06:58;;;;;;;7.00;4.85;;;;;;;;;;6095606;23;20026;-87
2022/06/17 12:09:43;;;;;;;8.10;4.32;;;;;;;;;;6069387;23;20339;-88
2022/06/17 12:12:13;;;;;;;6.03;3.60;;;;;;;;;;6095847;23;20009;-81
2022/06/17 12:14:42;;;;;;;4.40;3.28;;;;;;;;;;6095643;23;20213;-84
2022/06/17 12:17:13;;;;;;;4.72;3.38;;;;;;;;;;6095794;23;20028;-81
2022/06/17 12:19:39;;;;;;;3.53;2.88;;;;;;;;;;6095592;23;20070;-86
2022/06/17 12:22:09;;;;;;;24.33;21.23;;;;;;;;;;6096782;23;20014;-85
2022/06/17 12:24:52;;;;;;;5.35;3.40;;;;;;;;;;6097633;23;20006;-87
2022/06/17 12:27:23;;;;;;;11.82;10.70;;;;;;;;;;6097459;23;20003;-78
2022/06/17 12:30:07;;;;;;;10.60;9.75;;;;;;;;;;6096958;23;20320;-84
2022/06/17 12:32:52;;;;;;;7.80;6.00;;;;;;;;;;6096964;23;20057;-80
2022/06/17 12:35:22;;;;;;;6.35;4.10;;;;;;;;;;6097446;23;20006;-81
2022/06/17 12:37:55;;;;;;;4.90;3.40;;;;;;;;;;6097346;23;20003;-82
2022/06/17 12:40:39;;;;;;;4.03;2.83;;;;;;;;;;6096386;23;20316;-79
2022/06/17 12:43:27;;;;;;;5.88;4.53;;;;;;;;;;6071249;23;20030;-83
2022/06/17 12:46:09;;;;;;;8.73;4.70;;;;;;;;;;6097386;23;20002;-83
2022/06/17 12:48:54;;;;;;;4.10;2.80;;;;;;;;;;6070798;23;20450;-85
2022/06/17 12:54:42;;;;;;;6.30;4.72;;;;;;;;;;6097098;23;20077;-84
2022/06/17 12:57:08;;;;;;;4.60;3.50;;;;;;;;;;6070416;23;20006;-82
2022/06/17 12:59:53;;;;;;;4.43;2.50;;;;;;;;;;6096888;23;20494;-87
2022/06/17 13:02:23;;;;;;;4.30;2.10;;;;;;;;;;6096558;23;19999;-83
2022/06/17 13:05:08;;;;;;;3.47;2.63;;;;;;;;;;6096894;23;20010;-83
2022/06/17 13:07:57;;;;;;;13.65;12.18;;;;;;;;;;6071520;23;20010;-85
2022/06/17 13:10:42;;;;;;;4.47;3.00;;;;;;;;;;6071261;23;20007;-85
2022/06/17 13:13:27;;;;;;;4.60;2.75;;;;;;;;;;6071379;23;20330;-81
2022/06/17 13:15:56;;;;;;;5.18;2.58;;;;;;;;;;6097278;23;20041;-81
2022/06/17 13:18:31;;;;;;;2.40;2.20;;;;;;;;;;6096491;23;20030;-83
2022/06/17 13:21:03;;;;;;;4.40;2.20;;;;;;;;;;6097047;23;20330;-81
2022/06/17 13:23:37;;;;;;;4.60;2.72;;;;;;;;;;6071475;23;20048;-84
2022/06/17 13:26:22;;;;;;;4.97;2.55;;;;;;;;;;6097060;23;20009;-81
2022/06/17 13:28:48;;;;;;;2.53;2.30;;;;;;;;;;6096065;23;19998;-80
2022/06/17 13:31:20;;;;;;;4.00;2.38;;;;;;;;;;6096874;23;20010;-80
2022/06/17 13:34:05;;;;;;;2.58;2.08;;;;;;;;;;6096156;23;20006;-82
2022/06/17 13:36:50;;;;;;;3.10;2.63;;;;;;;;;;6096984;23;20058;-82
2022/06/17 13:39:18;;;;;;;2.88;2.58;;;;;;;;;;6097040;23;20010;-82
2022/06/17 13:41:47;;;;;;;4.20;3.10;;;;;;;;;;6097111;23;20025;-82
2022/06/17 13:44:19;;;;;;;2.80;2.53;;;;;;;;;;6096740;23;20366;-81
2022/06/17 13:46:51;;;;;;;3.05;2.63;;;;;;;;;;6097288;23;20006;-79
2022/06/17 13:49:36;;;;;;;8.10;7.28;;;;;;;;;;6097038;23;20490;-81
2022/06/17 13:52:17;;;;;;;6.45;3.10;;;;;;;;;;6097252;23;20033;-80
2022/06/17 13:54:48;;;;;;;5.15;3.85;;;;;;;;;;6096960;23;20073;-79
2022/06/17 13:57:17;;;;;;;4.88;3.70;;;;;;;;;;6071598;23;20077;-83
2022/06/17 13:59:54;;;;;;;4.70;3.75;;;;;;;;;;6096755;23;20007;-82
2022/06/17 14:02:20;;;;;;;9.43;4.40;;;;;;;;;;6096800;23;20054;-82
2022/06/17 14:05:01;;;;;;;6.45;3.88;;;;;;;;;;6096976;23;19999;-85
2022/06/17 14:07:45;;;;;;;4.35;3.92;;;;;;;;;;6096764;23;20003;-84
2022/06/17 14:10:34;;;;;;;6.03;4.85;;;;;;;;;;6096883;23;20053;-83
2022/06/17 14:13:04;;;;;;;4.75;4.35;;;;;;;;;;6053682;23;20010;-81
2022/06/17 14:15:34;;;;;;;5.60;3.22;;;;;;;;;;6096965;23;20010;-83
2022/06/17 14:18:03;;;;;;;5.63;3.20;;;;;;;;;;6039542;23;20098;-79
2022/06/17 14:20:31;;;;;;;4.03;2.75;;;;;;;;;;6039438;23;20008;-78
2022/06/17 14:23:12;;;;;;;4.25;3.05;;;;;;;;;;6039191;23;20003;-81
2022/06/17 14:25:59;;;;;;;5.05;3.10;;;;;;;;;;6039217;23;20055;-78
2022/06/17 14:28:35;;;;;;;4.05;3.65;;;;;;;;;;6039513;23;20003;-82
2022/06/17 14:31:20;;;;;;;3.85;2.72;;;;;;;;;;6039196;23;20335;-80
2022/06/17 14:34:04;;;;;;;3.38;3.08;;;;;;;;;;6038985;23;20388;-79
2022/06/17 14:36:49;;;;;;;3.88;3.03;;;;;;;;;;6039091;23;20058;-79
2022/06/17 14:39:30;;;;;;;4.72;2.63;;;;;;;;;;6039092;23;20006;-81
2022/06/17 14:42:15;;;;;;;3.80;2.55;;;;;;;;;;6039576;23;20006;-80
2022/06/17 14:44:43;;;;;;;4.13;2.47;;;;;;;;;;6039619;23;20004;-80
2022/06/17 14:47:28;;;;;;;3.25;2.50;;;;;;;;;;6039196;23;20010;-81
2022/06/17 14:49:57;;;;;;;9.98;7.35;;;;;;;;;;6036914;23;20147;-82
2022/06/17 14:52:26;;;;;;;5.25;2.63;;;;;;;;;;6039543;23;20056;-84
2022/06/17 14:55:11;;;;;;;2.88;2.40;;;;;;;;;;6039336;23;20034;-83
2022/06/17 14:57:48;;;;;;;2.75;2.55;;;;;;;;;;6039399;23;20006;-82
2022/06/17 15:00:16;;;;;;;6.00;3.67;;;;;;;;;;6038215;23;20007;-85
2022/06/17 15:02:47;;;;;;;4.13;2.88;;;;;;;;;;6038138;23;20011;-84
2022/06/17 15:05:35;;;;;;;4.88;3.05;;;;;;;;;;6039154;23;20003;-83
2022/06/17 15:08:20;;;;;;;4.57;2.70;;;;;;;;;;6039565;23;20435;-85
2022/06/17 15:11:07;;;;;;;6.78;3.00;;;;;;;;;;6037657;23;20014;-81
2022/06/17 15:16:23;;;;;;;5.72;4.85;;;;;;;;;;6058101;23;20060;-79
2022/06/17 15:18:49;;;;;;;4.20;3.22;;;;;;;;;;6095990;23;20041;-81
2022/06/17 15:21:37;;;;;;;12.90;9.77;;;;;;;;;;6071363;23;20093;-82
2022/06/17 15:24:15;;;;;;;3.78;3.22;;;;;;;;;;6096461;23;20002;-82
2022/06/17 15:26:59;;;;;;;3.40;3.00;;;;;;;;;;6096439;23;20449;-79
2022/06/17 15:29:27;;;;;;;9.07;4.43;;;;;;;;;;6096733;23;20013;-80
2022/06/17 15:31:53;;;;;;;5.18;3.15;;;;;;;;;;6096475;23;20007;-82
2022/06/17 15:34:22;;;;;;;5.20;2.70;;;;;;;;;;6095826;23;20383;-80
2022/06/17 15:36:49;;;;;;;4.78;2.90;;;;;;;;;;6096125;23;19998;-81
2022/06/17 15:39:18;;;;;;;7.60;3.17;;;;;;;;;;6095979;23;20053;-80
2022/06/17 15:42:03;;;;;;;6.35;3.10;;;;;;;;;;6070892;23;20002;-79